Pagrindinis puslapis
METAR-TAF:

METAR-TAF

Oro uostai :

Bric della Croce

Turinas, Italija

platuma: 45-02N, ilguma: 007-44E, Aukštis: 709 m

Dabartinis oras

Ataskaita buvo paskelbta 1 valandą ir 12 minutes, ne 11:55 UTC
Ramus vėjas
Temperatūra 13°C
Drėgmė 38%
Slėgis 1032 hPa
Matomumas 10 km arba daugiau
nėra debesų žemiau 1500 m ir nėra kamuolinių lietaus debesų

METAR: LIMK 251155Z 00000KT CAVOK 13/M01 Q1032 RMK SKC VAL NIL VIS MIN 9999

Laikas: 14:07 (13:07 UTC)


TAF: trūkstamas

Orai ataskaitas ir orų prognozės (METAR, TAF).

turimą stotys yra geltonos ir raudonos taškus žemėlapyje.

Perkelti pele per norėdami pamatyti stoties vardą.

Tada spustelėkite, norėdami matyti oro stebėjimo ir prognozės.

Norėdami pakeisti žemėlapį: spustelėkite ant žalios mygtukų su juodo kryžiaus žemyn,; žalią mygtuką su brūkšneliu, jei norite nutolinti; arba žalių rodyklių gretimoms žemėlapius.


METAR-TAF: